sensor_id;sensor_type;location;lat;lon;timestamp;pressure;altitude;pressure_sealevel;temperature;humidity
70521;BME280;58442;52.716;23.560;2023-01-08T00:00:52;101976.27;;;0.35;77.36
70521;BME280;58442;52.716;23.560;2023-01-08T00:03:05;101970.67;;;0.37;77.41
70521;BME280;58442;52.716;23.560;2023-01-08T00:05:07;101967.73;;;0.38;77.39
70521;BME280;58442;52.716;23.560;2023-01-08T00:07:10;101975.76;;;0.38;77.43
70521;BME280;58442;52.716;23.560;2023-01-08T00:09:12;101965.06;;;0.38;77.47
70521;BME280;58442;52.716;23.560;2023-01-08T00:11:19;101970.41;;;0.38;77.47
70521;BME280;58442;52.716;23.560;2023-01-08T00:13:20;101972.83;;;0.40;77.54
70521;BME280;58442;52.716;23.560;2023-01-08T00:15:21;101972.83;;;0.40;77.54
70521;BME280;58442;52.716;23.560;2023-01-08T00:17:22;101977.96;;;0.41;77.52
70521;BME280;58442;52.716;23.560;2023-01-08T00:19:23;101967.81;;;0.43;77.54
70521;BME280;58442;52.716;23.560;2023-01-08T00:21:24;101971.55;;;0.42;77.51
70521;BME280;58442;52.716;23.560;2023-01-08T00:23:25;101968.63;;;0.44;77.49
70521;BME280;58442;52.716;23.560;2023-01-08T00:25:28;101966.49;;;0.46;77.49
70521;BME280;58442;52.716;23.560;2023-01-08T00:27:29;101968.10;;;0.47;77.44
70521;BME280;58442;52.716;23.560;2023-01-08T00:29:30;101968.91;;;0.47;77.37
70521;BME280;58442;52.716;23.560;2023-01-08T00:31:32;101968.36;;;0.45;77.40
70521;BME280;58442;52.716;23.560;2023-01-08T00:33:51;101973.16;;;0.43;77.50
70521;BME280;58442;52.716;23.560;2023-01-08T00:35:52;101975.02;;;0.43;77.63
70521;BME280;58442;52.716;23.560;2023-01-08T00:40:07;101966.49;;;0.46;77.69
70521;BME280;58442;52.716;23.560;2023-01-08T00:42:14;101959.28;;;0.46;77.70
70521;BME280;58442;52.716;23.560;2023-01-08T00:44:20;101960.08;;;0.47;77.72
70521;BME280;58442;52.716;23.560;2023-01-08T00:46:21;101952.06;;;0.47;77.72
70521;BME280;58442;52.716;23.560;2023-01-08T00:48:22;101944.84;;;0.47;77.68
70521;BME280;58442;52.716;23.560;2023-01-08T00:50:24;101941.36;;;0.47;77.72
70521;BME280;58442;52.716;23.560;2023-01-08T00:52:35;101942.17;;;0.47;77.74
70521;BME280;58442;52.716;23.560;2023-01-08T00:54:36;101954.51;;;0.48;77.74
70521;BME280;58442;52.716;23.560;2023-01-08T00:56:37;101946.48;;;0.48;77.73
70521;BME280;58442;52.716;23.560;2023-01-08T00:58:38;101947.52;;;0.47;77.72
70521;BME280;58442;52.716;23.560;2023-01-08T01:00:50;101944.03;;;0.47;77.75
70521;BME280;58442;52.716;23.560;2023-01-08T01:02:53;101940.55;;;0.46;77.80
70521;BME280;58442;52.716;23.560;2023-01-08T01:04:54;101943.23;;;0.46;77.77
70521;BME280;58442;52.716;23.560;2023-01-08T01:06:56;101943.81;;;0.48;77.79
70521;BME280;58442;52.716;23.560;2023-01-08T01:09:05;101933.66;;;0.50;77.80
70521;BME280;58442;52.716;23.560;2023-01-08T01:11:08;101939.56;;;0.52;77.76
70521;BME280;58442;52.716;23.560;2023-01-08T01:13:09;101935.02;;;0.53;77.69
70521;BME280;58442;52.716;23.560;2023-01-08T01:15:15;101937.69;;;0.53;77.66
70521;BME280;58442;52.716;23.560;2023-01-08T01:17:20;101921.90;;;0.51;77.74
70521;BME280;58442;52.716;23.560;2023-01-08T01:19:21;101928.05;;;0.52;77.81
70521;BME280;58442;52.716;23.560;2023-01-08T01:21:29;101918.16;;;0.52;77.81
70521;BME280;58442;52.716;23.560;2023-01-08T01:23:30;101925.13;;;0.53;77.84
70521;BME280;58442;52.716;23.560;2023-01-08T01:25:36;101912.55;;;0.54;77.85
70521;BME280;58442;52.716;23.560;2023-01-08T01:27:39;101913.37;;;0.54;77.87
70521;BME280;58442;52.716;23.560;2023-01-08T01:29:41;101911.27;;;0.57;77.86
70521;BME280;58442;52.716;23.560;2023-01-08T01:31:43;101921.16;;;0.56;77.86
70521;BME280;58442;52.716;23.560;2023-01-08T01:33:50;101915.00;;;0.56;77.85
70521;BME280;58442;52.716;23.560;2023-01-08T01:36:01;101911.27;;;0.57;77.84
70521;BME280;58442;52.716;23.560;2023-01-08T01:38:02;101915.00;;;0.56;77.87
70521;BME280;58442;52.716;23.560;2023-01-08T01:40:04;101903.73;;;0.53;77.86
70521;BME280;58442;52.716;23.560;2023-01-08T01:42:12;101906.41;;;0.53;77.96
70521;BME280;58442;52.716;23.560;2023-01-08T01:46:49;101901.05;;;0.53;78.02
70521;BME280;58442;52.716;23.560;2023-01-08T01:48:54;101890.36;;;0.53;78.11
70521;BME280;58442;52.716;23.560;2023-01-08T01:50:55;101892.55;;;0.57;78.10
70521;BME280;58442;52.716;23.560;2023-01-08T01:55:10;101895.77;;;0.59;78.00
70521;BME280;58442;52.716;23.560;2023-01-08T01:57:12;101894.96;;;0.58;78.05
70521;BME280;58442;52.716;23.560;2023-01-08T02:01:30;101890.41;;;0.59;78.06
70521;BME280;58442;52.716;23.560;2023-01-08T02:03:36;101886.67;;;0.60;78.09
70521;BME280;58442;52.716;23.560;2023-01-08T02:06:10;101885.61;;;0.61;78.05
70521;BME280;58442;52.716;23.560;2023-01-08T02:08:12;101880.04;;;0.62;78.08
70521;BME280;58442;52.716;23.560;2023-01-08T02:10:37;101889.90;;;0.62;78.08
70521;BME280;58442;52.716;23.560;2023-01-08T02:19:58;101869.02;;;0.59;78.16
70521;BME280;58442;52.716;23.560;2023-01-08T02:24:44;101869.56;;;0.61;78.18
70521;BME280;58442;52.716;23.560;2023-01-08T02:26:55;101873.84;;;0.62;78.14
70521;BME280;58442;52.716;23.560;2023-01-08T02:29:04;101864.79;;;0.63;78.13
70521;BME280;58442;52.716;23.560;2023-01-08T02:31:07;101858.63;;;0.62;78.16
70521;BME280;58442;52.716;23.560;2023-01-08T02:33:08;101855.70;;;0.64;78.19
70521;BME280;58442;52.716;23.560;2023-01-08T02:35:17;101850.09;;;0.65;78.21
70521;BME280;58442;52.716;23.560;2023-01-08T02:37:18;101857.85;;;0.67;78.20
70521;BME280;58442;52.716;23.560;2023-01-08T02:41:44;101857.05;;;0.66;78.15
70521;BME280;58442;52.716;23.560;2023-01-08T02:43:49;101855.98;;;0.67;78.17
70521;BME280;58442;52.716;23.560;2023-01-08T02:46:05;101853.09;;;0.69;78.16
70521;BME280;58442;52.716;23.560;2023-01-08T02:55:22;101841.05;;;0.71;78.18
70521;BME280;58442;52.716;23.560;2023-01-08T02:57:40;101837.32;;;0.72;78.15
70521;BME280;58442;52.716;23.560;2023-01-08T02:59:44;101833.84;;;0.72;78.17
70521;BME280;58442;52.716;23.560;2023-01-08T03:01:47;101840.25;;;0.71;78.18
70521;BME280;58442;52.716;23.560;2023-01-08T03:03:52;101842.93;;;0.71;78.25
70521;BME280;58442;52.716;23.560;2023-01-08T03:08:18;101838.93;;;0.73;78.22
70521;BME280;58442;52.716;23.560;2023-01-08T03:12:46;101833.29;;;0.70;78.25
70521;BME280;58442;52.716;23.560;2023-01-08T03:14:55;101835.96;;;0.70;78.32
70521;BME280;58442;52.716;23.560;2023-01-08T03:17:03;101831.16;;;0.72;78.30
70521;BME280;58442;52.716;23.560;2023-01-08T03:19:30;101830.09;;;0.73;78.23
70521;BME280;58442;52.716;23.560;2023-01-08T03:21:22;101821.26;;;0.72;78.23
70521;BME280;58442;52.716;23.560;2023-01-08T03:23:25;101821.52;;;0.71;78.24
70521;BME280;58442;52.716;23.560;2023-01-08T03:25:29;101829.55;;;0.71;78.29
70521;BME280;58442;52.716;23.560;2023-01-08T03:27:36;101831.16;;;0.72;78.28
70521;BME280;58442;52.716;23.560;2023-01-08T03:29:46;101833.02;;;0.71;78.27
70521;BME280;58442;52.716;23.560;2023-01-08T03:32:05;101831.16;;;0.72;78.36
70521;BME280;58442;52.716;23.560;2023-01-08T03:34:10;101834.64;;;0.72;78.41
70521;BME280;58442;52.716;23.560;2023-01-08T03:36:17;101819.94;;;0.75;78.40
70521;BME280;58442;52.716;23.560;2023-01-08T03:38:27;101831.21;;;0.77;78.33
70521;BME280;58442;52.716;23.560;2023-01-08T03:40:34;101824.79;;;0.78;78.28
70521;BME280;58442;52.716;23.560;2023-01-08T03:42:39;101828.02;;;0.80;78.33
70521;BME280;58442;52.716;23.560;2023-01-08T03:44:40;101824.27;;;0.81;78.28
70521;BME280;58442;52.716;23.560;2023-01-08T03:46:47;101815.17;;;0.82;78.24
70521;BME280;58442;52.716;23.560;2023-01-08T03:48:51;101820.52;;;0.82;78.24
70521;BME280;58442;52.716;23.560;2023-01-08T03:50:54;101822.39;;;0.81;78.31
70521;BME280;58442;52.716;23.560;2023-01-08T03:52:55;101819.49;;;0.83;78.33
70521;BME280;58442;52.716;23.560;2023-01-08T03:54:56;101815.75;;;0.84;78.33
70521;BME280;58442;52.716;23.560;2023-01-08T03:56:57;101815.49;;;0.86;78.31
70521;BME280;58442;52.716;23.560;2023-01-08T03:59:13;101814.69;;;0.85;78.28
70521;BME280;58442;52.716;23.560;2023-01-08T04:01:14;101814.69;;;0.85;78.28
70521;BME280;58442;52.716;23.560;2023-01-08T04:03:15;101809.33;;;0.85;78.32
70521;BME280;58442;52.716;23.560;2023-01-08T04:05:16;101815.49;;;0.86;78.31
70521;BME280;58442;52.716;23.560;2023-01-08T04:07:24;101816.29;;;0.86;78.33
70521;BME280;58442;52.716;23.560;2023-01-08T04:09:25;101809.33;;;0.85;78.38
70521;BME280;58442;52.716;23.560;2023-01-08T04:11:26;101807.73;;;0.84;78.38
70521;BME280;58442;52.716;23.560;2023-01-08T04:13:27;101815.49;;;0.86;78.47
70521;BME280;58442;52.716;23.560;2023-01-08T04:18:00;101802.65;;;0.88;78.39
70521;BME280;58442;52.716;23.560;2023-01-08T04:20:02;101806.13;;;0.88;78.36
70521;BME280;58442;52.716;23.560;2023-01-08T04:22:03;101815.77;;;0.89;78.32
70521;BME280;58442;52.716;23.560;2023-01-08T04:24:05;101807.20;;;0.87;78.31
70521;BME280;58442;52.716;23.560;2023-01-08T04:26:19;101812.55;;;0.87;78.39
70521;BME280;58442;52.716;23.560;2023-01-08T04:28:20;101811.48;;;0.88;78.39
70521;BME280;58442;52.716;23.560;2023-01-08T04:30:22;101814.73;;;0.90;78.35
70521;BME280;58442;52.716;23.560;2023-01-08T04:32:23;101807.50;;;0.91;78.33
70521;BME280;58442;52.716;23.560;2023-01-08T04:34:33;101804.84;;;0.91;78.31
70521;BME280;58442;52.716;23.560;2023-01-08T04:36:34;101807.74;;;0.89;78.33
70521;BME280;58442;52.716;23.560;2023-01-08T04:38:42;101802.38;;;0.89;78.36
70521;BME280;58442;52.716;23.560;2023-01-08T04:40:43;101801.58;;;0.89;78.37
70521;BME280;58442;52.716;23.560;2023-01-08T04:42:46;101801.58;;;0.89;78.38
70521;BME280;58442;52.716;23.560;2023-01-08T04:44:47;101811.48;;;0.88;78.38
70521;BME280;58442;52.716;23.560;2023-01-08T04:46:48;101805.33;;;0.88;78.43
70521;BME280;58442;52.716;23.560;2023-01-08T04:48:49;101810.42;;;0.89;78.43
70521;BME280;58442;52.716;23.560;2023-01-08T04:50:50;101812.06;;;0.90;78.44
70521;BME280;58442;52.716;23.560;2023-01-08T04:52:58;101819.02;;;0.91;78.45
70521;BME280;58442;52.716;23.560;2023-01-08T04:54:59;101815.27;;;0.92;78.40
70521;BME280;58442;52.716;23.560;2023-01-08T04:57:04;101809.92;;;0.92;78.42
70521;BME280;58442;52.716;23.560;2023-01-08T04:59:07;101819.30;;;0.95;78.44
70521;BME280;58442;52.716;23.560;2023-01-08T05:01:14;101813.95;;;0.95;78.40
70521;BME280;58442;52.716;23.560;2023-01-08T05:03:17;101814.75;;;0.95;78.41
70521;BME280;58442;52.716;23.560;2023-01-08T05:05:19;101813.71;;;0.96;78.44
70521;BME280;58442;52.716;23.560;2023-01-08T05:07:20;101803.55;;;0.98;78.42
70521;BME280;58442;52.716;23.560;2023-01-08T05:09:21;101815.60;;;1.01;78.36
70521;BME280;58442;52.716;23.560;2023-01-08T05:11:23;101816.39;;;0.96;78.37
70521;BME280;58442;52.716;23.560;2023-01-08T05:13:32;101811.03;;;0.96;78.45
70521;BME280;58442;52.716;23.560;2023-01-08T05:15:33;101804.04;;;0.95;78.46
70521;BME280;58442;52.716;23.560;2023-01-08T05:17:34;101805.68;;;0.96;78.47
70521;BME280;58442;52.716;23.560;2023-01-08T05:19:43;101812.07;;;0.95;78.48
70521;BME280;58442;52.716;23.560;2023-01-08T05:21:45;101805.38;;;0.93;78.49
70521;BME280;58442;52.716;23.560;2023-01-08T05:23:46;101814.47;;;0.92;78.54
70521;BME280;58442;52.716;23.560;2023-01-08T05:25:48;101807.24;;;0.92;78.57
70521;BME280;58442;52.716;23.560;2023-01-08T05:27:49;101813.95;;;0.95;78.60
70521;BME280;58442;52.716;23.560;2023-01-08T05:30:00;101818.00;;;0.97;78.57
70521;BME280;58442;52.716;23.560;2023-01-08T05:32:01;101817.73;;;0.99;78.51
70521;BME280;58442;52.716;23.560;2023-01-08T05:34:02;101819.35;;;1.00;78.47
70521;BME280;58442;52.716;23.560;2023-01-08T05:36:05;101816.66;;;1.00;78.49
70521;BME280;58442;52.716;23.560;2023-01-08T05:38:15;101820.70;;;1.02;78.45
70521;BME280;58442;52.716;23.560;2023-01-08T05:40:16;101818.29;;;1.01;78.42
70521;BME280;58442;52.716;23.560;2023-01-08T05:42:17;101827.11;;;1.01;78.42
70521;BME280;58442;52.716;23.560;2023-01-08T05:44:18;101816.41;;;1.01;78.45
70521;BME280;58442;52.716;23.560;2023-01-08T05:48:40;101822.83;;;1.00;78.41
70521;BME280;58442;52.716;23.560;2023-01-08T05:50:48;101820.67;;;0.97;78.44
70521;BME280;58442;52.716;23.560;2023-01-08T05:52:50;101834.29;;;0.96;78.50
70521;BME280;58442;52.716;23.560;2023-01-08T05:54:51;101828.94;;;0.96;78.61
70521;BME280;58442;52.716;23.560;2023-01-08T05:56:57;101826.03;;;0.97;78.59
70521;BME280;58442;52.716;23.560;2023-01-08T05:58:58;101828.70;;;0.97;78.57
70521;BME280;58442;52.716;23.560;2023-01-08T06:01:04;101822.55;;;0.97;78.75
70521;BME280;58442;52.716;23.560;2023-01-08T06:03:05;101831.92;;;0.99;78.57
70521;BME280;58442;52.716;23.560;2023-01-08T06:05:07;101828.17;;;1.00;78.53
70521;BME280;58442;52.716;23.560;2023-01-08T06:07:08;101818.01;;;1.02;78.47
70521;BME280;58442;52.716;23.560;2023-01-08T06:09:15;101809.98;;;1.02;78.43
70521;BME280;58442;52.716;23.560;2023-01-08T06:11:16;101819.88;;;1.02;78.49
70521;BME280;58442;52.716;23.560;2023-01-08T06:13:20;101820.70;;;1.02;78.49
70521;BME280;58442;52.716;23.560;2023-01-08T06:15:27;101822.34;;;1.03;78.43
70521;BME280;58442;52.716;23.560;2023-01-08T06:17:36;101825.01;;;1.03;78.40
70521;BME280;58442;52.716;23.560;2023-01-08T06:19:37;101831.40;;;1.02;78.45
70521;BME280;58442;52.716;23.560;2023-01-08T06:21:39;101826.85;;;1.03;78.42
70521;BME280;58442;52.716;23.560;2023-01-08T06:23:40;101827.11;;;1.01;78.37
70521;BME280;58442;52.716;23.560;2023-01-08T06:28:15;101818.00;;;0.97;78.47
70521;BME280;58442;52.716;23.560;2023-01-08T06:30:22;101808.60;;;0.95;78.52
70521;BME280;58442;52.716;23.560;2023-01-08T06:32:23;101817.42;;;0.95;78.61
70521;BME280;58442;52.716;23.560;2023-01-08T06:34:25;101823.34;;;0.97;78.59
70521;BME280;58442;52.716;23.560;2023-01-08T06:36:28;101826.58;;;0.99;78.54
70521;BME280;58442;52.716;23.560;2023-01-08T06:38:34;101823.09;;;0.99;78.52
70521;BME280;58442;52.716;23.560;2023-01-08T06:40:35;101831.92;;;0.99;78.51
70521;BME280;58442;52.716;23.560;2023-01-08T06:42:42;101829.25;;;0.99;78.47
70521;BME280;58442;52.716;23.560;2023-01-08T06:44:45;101828.17;;;1.00;78.40
70521;BME280;58442;52.716;23.560;2023-01-08T06:46:46;101824.96;;;0.98;78.34
70521;BME280;58442;52.716;23.560;2023-01-08T06:48:47;101816.93;;;0.98;78.51
70521;BME280;58442;52.716;23.560;2023-01-08T06:50:48;101815.05;;;0.99;78.38
70521;BME280;58442;52.716;23.560;2023-01-08T06:52:57;101816.66;;;1.00;78.37
70521;BME280;58442;52.716;23.560;2023-01-08T06:54:58;101808.90;;;0.98;78.35
70521;BME280;58442;52.716;23.560;2023-01-08T06:57:00;101820.67;;;0.97;78.42
70521;BME280;58442;52.716;23.560;2023-01-08T06:59:01;101822.55;;;0.97;78.44
70521;BME280;58442;52.716;23.560;2023-01-08T07:01:02;101822.55;;;0.97;78.48
70521;BME280;58442;52.716;23.560;2023-01-08T07:03:03;101817.73;;;0.99;78.44
70521;BME280;58442;52.716;23.560;2023-01-08T07:05:10;101830.86;;;1.00;78.39
70521;BME280;58442;52.716;23.560;2023-01-08T07:07:12;101826.31;;;1.01;78.39
70521;BME280;58442;52.716;23.560;2023-01-08T07:09:16;101836.75;;;1.02;78.38
70521;BME280;58442;52.716;23.560;2023-01-08T07:11:17;101834.64;;;1.04;78.35
70521;BME280;58442;52.716;23.560;2023-01-08T07:13:21;101833.05;;;1.08;78.27
70521;BME280;58442;52.716;23.560;2023-01-08T07:15:27;101823.73;;;1.11;78.23
70521;BME280;58442;52.716;23.560;2023-01-08T07:17:34;101825.34;;;1.12;78.24
70521;BME280;58442;52.716;23.560;2023-01-08T07:19:38;101828.29;;;1.16;78.23
70521;BME280;58442;52.716;23.560;2023-01-08T07:21:39;101824.30;;;1.18;78.22
70521;BME280;58442;52.716;23.560;2023-01-08T07:23:49;101825.96;;;1.24;78.11
70521;BME280;58442;52.716;23.560;2023-01-08T07:25:51;101824.09;;;1.30;78.03
70521;BME280;58442;52.716;23.560;2023-01-08T07:27:52;101827.88;;;1.34;77.94
70521;BME280;58442;52.716;23.560;2023-01-08T07:29:54;101823.63;;;1.38;77.86
70521;BME280;58442;52.716;23.560;2023-01-08T07:31:57;101824.71;;;1.42;77.78
70521;BME280;58442;52.716;23.560;2023-01-08T07:33:58;101829.57;;;1.45;77.67
70521;BME280;58442;52.716;23.560;2023-01-08T07:36:01;101822.62;;;1.49;77.65
70521;BME280;58442;52.716;23.560;2023-01-08T07:38:05;101829.34;;;1.52;77.51
70521;BME280;58442;52.716;23.560;2023-01-08T07:40:14;101833.37;;;1.54;77.48
70521;BME280;58442;52.716;23.560;2023-01-08T07:42:25;101823.19;;;1.56;77.46
70521;BME280;58442;52.716;23.560;2023-01-08T07:44:32;101830.72;;;1.59;77.34
70521;BME280;58442;52.716;23.560;2023-01-08T07:46:36;101833.66;;;1.63;77.26
70521;BME280;58442;52.716;23.560;2023-01-08T07:48:38;101829.12;;;1.63;77.21
70521;BME280;58442;52.716;23.560;2023-01-08T07:50:39;101836.66;;;1.67;77.12
70521;BME280;58442;52.716;23.560;2023-01-08T07:52:40;101829.41;;;1.67;77.18
70521;BME280;58442;52.716;23.560;2023-01-08T07:54:41;101826.48;;;1.69;77.16
70521;BME280;58442;52.716;23.560;2023-01-08T07:56:46;101827.01;;;1.71;77.10
70521;BME280;58442;52.716;23.560;2023-01-08T07:58:47;101822.75;;;1.75;77.03
70521;BME280;58442;52.716;23.560;2023-01-08T08:00:48;101820.61;;;1.77;76.89
70521;BME280;58442;52.716;23.560;2023-01-08T08:02:52;101819.00;;;1.76;76.91
70521;BME280;58442;52.716;23.560;2023-01-08T08:05:01;101817.93;;;1.77;76.84
70521;BME280;58442;52.716;23.560;2023-01-08T08:07:02;101817.40;;;1.75;76.75
70521;BME280;58442;52.716;23.560;2023-01-08T08:09:03;101809.35;;;1.75;76.82
70521;BME280;58442;52.716;23.560;2023-01-08T08:11:04;101811.23;;;1.74;76.80
70521;BME280;58442;52.716;23.560;2023-01-08T08:13:05;101805.06;;;1.74;76.77
70521;BME280;58442;52.716;23.560;2023-01-08T08:15:09;101806.13;;;1.73;76.66
70521;BME280;58442;52.716;23.560;2023-01-08T08:17:10;101799.40;;;1.70;76.61
70521;BME280;58442;52.716;23.560;2023-01-08T08:19:11;101801.02;;;1.66;76.58
70521;BME280;58442;52.716;23.560;2023-01-08T08:21:13;101800.98;;;1.61;76.66
70521;BME280;58442;52.716;23.560;2023-01-08T08:23:14;101799.88;;;1.57;76.67
70521;BME280;58442;52.716;23.560;2023-01-08T08:25:15;101801.21;;;1.54;76.67
70521;BME280;58442;52.716;23.560;2023-01-08T08:27:26;101798.54;;;1.54;76.69
70521;BME280;58442;52.716;23.560;2023-01-08T08:29:27;101804.17;;;1.53;76.56
70521;BME280;58442;52.716;23.560;2023-01-08T08:31:28;101797.20;;;1.52;76.64
70521;BME280;58442;52.716;23.560;2023-01-08T08:33:38;101795.33;;;1.52;76.60
70521;BME280;58442;52.716;23.560;2023-01-08T08:35:49;101801.21;;;1.54;76.60
70521;BME280;58442;52.716;23.560;2023-01-08T08:38:03;101800.16;;;1.55;76.55
70521;BME280;58442;52.716;23.560;2023-01-08T08:40:08;101805.23;;;1.57;76.56
70521;BME280;58442;52.716;23.560;2023-01-08T08:42:09;101797.23;;;1.62;76.59
70521;BME280;58442;52.716;23.560;2023-01-08T08:44:10;101776.91;;;1.66;76.52
70521;BME280;58442;52.716;23.560;2023-01-08T08:46:17;101780.65;;;1.70;76.44
70521;BME280;58442;52.716;23.560;2023-01-08T08:48:19;101773.17;;;1.72;76.29
70521;BME280;58442;52.716;23.560;2023-01-08T08:50:21;101778.54;;;1.77;76.33
70521;BME280;58442;52.716;23.560;2023-01-08T08:54:45;101763.02;;;1.84;76.10
70521;BME280;58442;52.716;23.560;2023-01-08T08:56:57;101765.98;;;1.88;76.08
70521;BME280;58442;52.716;23.560;2023-01-08T08:58:58;101763.57;;;1.91;76.01
70521;BME280;58442;52.716;23.560;2023-01-08T09:01:01;101759.01;;;1.92;75.87
70521;BME280;58442;52.716;23.560;2023-01-08T09:03:03;101748.29;;;1.92;75.76
70521;BME280;58442;52.716;23.560;2023-01-08T09:05:10;101735.16;;;1.90;75.84
70521;BME280;58442;52.716;23.560;2023-01-08T09:07:12;101726.85;;;1.92;75.90
70521;BME280;58442;52.716;23.560;2023-01-08T09:09:13;101725.00;;;1.93;75.85
70521;BME280;58442;52.716;23.560;2023-01-08T09:11:15;101724.73;;;1.94;75.86
70521;BME280;58442;52.716;23.560;2023-01-08T09:13:30;101723.11;;;1.98;75.80
70521;BME280;58442;52.716;23.560;2023-01-08T09:15:31;101720.72;;;2.02;75.68
70521;BME280;58442;52.716;23.560;2023-01-08T09:17:32;101720.98;;;2.05;75.65
70521;BME280;58442;52.716;23.560;2023-01-08T09:19:36;101723.68;;;2.10;75.51
70521;BME280;58442;52.716;23.560;2023-01-08T09:21:39;101726.09;;;2.12;75.44
70521;BME280;58442;52.716;23.560;2023-01-08T09:23:43;101727.45;;;2.14;75.40
70521;BME280;58442;52.716;23.560;2023-01-08T09:25:44;101725.03;;;2.18;75.36
70521;BME280;58442;52.716;23.560;2023-01-08T09:27:46;101708.42;;;2.21;75.22
70521;BME280;58442;52.716;23.560;2023-01-08T09:29:54;101709.75;;;2.24;75.03
70521;BME280;58442;52.716;23.560;2023-01-08T09:32:22;101710.55;;;2.24;75.00
70521;BME280;58442;52.716;23.560;2023-01-08T09:34:23;101707.86;;;2.24;74.91
70521;BME280;58442;52.716;23.560;2023-01-08T09:36:24;101711.63;;;2.23;74.87
70521;BME280;58442;52.716;23.560;2023-01-08T09:38:28;101695.55;;;2.23;74.89
70521;BME280;58442;52.716;23.560;2023-01-08T09:40:43;101694.46;;;2.24;74.82
70521;BME280;58442;52.716;23.560;2023-01-08T09:42:52;101682.94;;;2.24;74.71
70521;BME280;58442;52.716;23.560;2023-01-08T09:44:56;101680.54;;;2.27;74.71
70521;BME280;58442;52.716;23.560;2023-01-08T09:46:58;101675.70;;;2.29;74.64
70521;BME280;58442;52.716;23.560;2023-01-08T09:49:06;101662.01;;;2.31;74.60
70521;BME280;58442;52.716;23.560;2023-01-08T09:51:13;101651.80;;;2.33;74.53
70521;BME280;58442;52.716;23.560;2023-01-08T09:55:32;101668.18;;;2.31;74.26
70521;BME280;58442;52.716;23.560;2023-01-08T09:57:37;101659.88;;;2.28;74.27
70521;BME280;58442;52.716;23.560;2023-01-08T09:59:39;101663.64;;;2.27;74.23
70521;BME280;58442;52.716;23.560;2023-01-08T10:01:46;101660.67;;;2.23;74.22
70521;BME280;58442;52.716;23.560;2023-01-08T10:03:55;101660.15;;;2.21;74.29
70521;BME280;58442;52.716;23.560;2023-01-08T10:05:55;101659.59;;;2.19;74.18
70521;BME280;58442;52.716;23.560;2023-01-08T10:07:56;101652.89;;;2.16;74.14
70521;BME280;58442;52.716;23.560;2023-01-08T10:09:59;101657.46;;;2.16;74.16
70521;BME280;58442;52.716;23.560;2023-01-08T10:12:02;101662.82;;;2.16;74.05
70521;BME280;58442;52.716;23.560;2023-01-08T10:14:19;101656.09;;;2.18;74.09
70521;BME280;58442;52.716;23.560;2023-01-08T10:16:32;101652.34;;;2.19;73.96
70521;BME280;58442;52.716;23.560;2023-01-08T10:18:37;101653.42;;;2.18;73.88
70521;BME280;58442;52.716;23.560;2023-01-08T10:20:40;101649.67;;;2.19;73.97
70521;BME280;58442;52.716;23.560;2023-01-08T10:22:41;101648.62;;;2.21;73.76
70521;BME280;58442;52.716;23.560;2023-01-08T10:24:46;101647.81;;;2.20;73.83
70521;BME280;58442;52.716;23.560;2023-01-08T10:26:47;101654.51;;;2.23;73.68
70521;BME280;58442;52.716;23.560;2023-01-08T10:28:48;101639.49;;;2.22;73.76
70521;BME280;58442;52.716;23.560;2023-01-08T10:30:59;101644.86;;;2.22;73.71
70521;BME280;58442;52.716;23.560;2023-01-08T10:33:05;101634.94;;;2.22;73.64
70521;BME280;58442;52.716;23.560;2023-01-08T10:35:18;101628.21;;;2.19;73.72
70521;BME280;58442;52.716;23.560;2023-01-08T10:39:33;101617.77;;;2.23;73.51
70521;BME280;58442;52.716;23.560;2023-01-08T10:41:38;101613.20;;;2.18;73.61
70521;BME280;58442;52.716;23.560;2023-01-08T10:43:52;101616.68;;;2.19;73.60
70521;BME280;58442;52.716;23.560;2023-01-08T10:46:00;101611.59;;;2.17;73.59
70521;BME280;58442;52.716;23.560;2023-01-08T10:48:05;101611.06;;;2.15;73.48
70521;BME280;58442;52.716;23.560;2023-01-08T10:50:17;101600.63;;;2.14;73.57
70521;BME280;58442;52.716;23.560;2023-01-08T10:52:25;101596.58;;;2.11;73.70
70521;BME280;58442;52.716;23.560;2023-01-08T10:54:38;101588.02;;;2.14;73.63
70521;BME280;58442;52.716;23.560;2023-01-08T10:56:49;101600.34;;;2.15;73.47
70521;BME280;58442;52.716;23.560;2023-01-08T10:58:51;101585.61;;;2.13;73.32
70521;BME280;58442;52.716;23.560;2023-01-08T11:00:52;101589.88;;;2.09;73.27
70521;BME280;58442;52.716;23.560;2023-01-08T11:02:59;101583.20;;;2.06;73.43
70521;BME280;58442;52.716;23.560;2023-01-08T11:05:07;101579.44;;;2.07;73.48
70521;BME280;58442;52.716;23.560;2023-01-08T11:07:17;101563.35;;;2.07;73.39
70521;BME280;58442;52.716;23.560;2023-01-08T11:09:23;101575.16;;;2.06;73.36
70521;BME280;58442;52.716;23.560;2023-01-08T11:11:34;101574.59;;;2.04;73.36
70521;BME280;58442;52.716;23.560;2023-01-08T11:13:37;101585.32;;;2.04;73.31
70521;BME280;58442;52.716;23.560;2023-01-08T11:15:46;101567.63;;;2.03;73.24
70521;BME280;58442;52.716;23.560;2023-01-08T11:17:52;101582.12;;;2.02;73.31
70521;BME280;58442;52.716;23.560;2023-01-08T11:19:53;101581.57;;;2.05;73.31
70521;BME280;58442;52.716;23.560;2023-01-08T11:22:02;101577.27;;;2.09;73.25
70521;BME280;58442;52.716;23.560;2023-01-08T11:26:22;101584.25;;;2.10;73.14
70521;BME280;58442;52.716;23.560;2023-01-08T11:28:28;101579.96;;;2.14;73.15
70521;BME280;58442;52.716;23.560;2023-01-08T11:30:33;101578.09;;;2.20;73.06
70521;BME280;58442;52.716;23.560;2023-01-08T11:32:44;101573.77;;;2.24;72.94
70521;BME280;58442;52.716;23.560;2023-01-08T11:34:58;101589.35;;;2.27;72.78
70521;BME280;58442;52.716;23.560;2023-01-08T11:37:28;101577.27;;;2.19;72.69
70521;BME280;58442;52.716;23.560;2023-01-08T11:39:19;101597.94;;;2.14;72.77
70521;BME280;58442;52.716;23.560;2023-01-08T11:50:23;101574.88;;;2.13;72.64